sensor_id;sensor_type;location;lat;lon;timestamp;P1;durP1;ratioP1;P2;durP2;ratioP2
50483;SDS011;36409;52.168;20.878;2022-08-23T00:00:10;22.37;;;9.40;;
50483;SDS011;36409;52.168;20.878;2022-08-23T00:03:01;19.80;;;9.10;;
50483;SDS011;36409;52.168;20.878;2022-08-23T00:05:32;16.50;;;8.43;;
50483;SDS011;36409;52.168;20.878;2022-08-23T00:08:00;26.90;;;9.77;;
50483;SDS011;36409;52.168;20.878;2022-08-23T00:10:30;24.07;;;9.37;;
50483;SDS011;36409;52.168;20.878;2022-08-23T00:12:58;22.57;;;9.37;;
50483;SDS011;36409;52.168;20.878;2022-08-23T00:15:27;17.33;;;8.27;;
50483;SDS011;36409;52.168;20.878;2022-08-23T00:17:56;19.83;;;8.90;;
50483;SDS011;36409;52.168;20.878;2022-08-23T00:20:26;20.80;;;7.90;;
50483;SDS011;36409;52.168;20.878;2022-08-23T00:22:55;28.03;;;9.03;;
50483;SDS011;36409;52.168;20.878;2022-08-23T00:25:24;20.87;;;8.83;;
50483;SDS011;36409;52.168;20.878;2022-08-23T00:27:53;17.67;;;8.37;;
50483;SDS011;36409;52.168;20.878;2022-08-23T00:30:21;23.37;;;8.93;;
50483;SDS011;36409;52.168;20.878;2022-08-23T00:32:50;17.13;;;8.67;;
50483;SDS011;36409;52.168;20.878;2022-08-23T00:35:24;22.20;;;9.03;;
50483;SDS011;36409;52.168;20.878;2022-08-23T00:37:55;17.97;;;8.97;;
50483;SDS011;36409;52.168;20.878;2022-08-23T00:40:46;27.37;;;9.30;;
50483;SDS011;36409;52.168;20.878;2022-08-23T00:43:18;28.90;;;8.33;;
50483;SDS011;36409;52.168;20.878;2022-08-23T00:46:12;25.17;;;9.57;;
50483;SDS011;36409;52.168;20.878;2022-08-23T00:49:08;20.77;;;9.17;;
50483;SDS011;36409;52.168;20.878;2022-08-23T00:51:39;24.50;;;9.30;;
50483;SDS011;36409;52.168;20.878;2022-08-23T00:54:20;22.37;;;9.77;;
50483;SDS011;36409;52.168;20.878;2022-08-23T00:56:52;24.53;;;10.23;;
50483;SDS011;36409;52.168;20.878;2022-08-23T00:59:22;24.43;;;9.27;;
50483;SDS011;36409;52.168;20.878;2022-08-23T01:01:51;23.27;;;9.50;;
50483;SDS011;36409;52.168;20.878;2022-08-23T01:04:20;19.13;;;9.13;;
50483;SDS011;36409;52.168;20.878;2022-08-23T01:06:49;19.33;;;9.57;;
50483;SDS011;36409;52.168;20.878;2022-08-23T01:09:23;16.23;;;7.97;;
50483;SDS011;36409;52.168;20.878;2022-08-23T01:11:53;20.63;;;8.43;;
50483;SDS011;36409;52.168;20.878;2022-08-23T01:14:28;19.90;;;8.57;;
50483;SDS011;36409;52.168;20.878;2022-08-23T01:17:01;23.50;;;9.45;;
50483;SDS011;36409;52.168;20.878;2022-08-23T01:19:35;20.93;;;8.93;;
50483;SDS011;36409;52.168;20.878;2022-08-23T01:22:10;20.37;;;9.07;;
50483;SDS011;36409;52.168;20.878;2022-08-23T01:24:44;19.83;;;9.27;;
50483;SDS011;36409;52.168;20.878;2022-08-23T01:27:36;18.07;;;8.70;;
50483;SDS011;36409;52.168;20.878;2022-08-23T01:30:06;20.67;;;8.70;;
50483;SDS011;36409;52.168;20.878;2022-08-23T01:32:40;14.63;;;8.83;;
50483;SDS011;36409;52.168;20.878;2022-08-23T01:37:41;21.40;;;8.87;;
50483;SDS011;36409;52.168;20.878;2022-08-23T01:40:10;16.93;;;8.97;;
50483;SDS011;36409;52.168;20.878;2022-08-23T01:42:40;23.37;;;9.83;;
50483;SDS011;36409;52.168;20.878;2022-08-23T01:45:12;19.13;;;9.17;;
50483;SDS011;36409;52.168;20.878;2022-08-23T01:47:41;20.33;;;9.30;;
50483;SDS011;36409;52.168;20.878;2022-08-23T01:50:10;19.10;;;10.03;;
50483;SDS011;36409;52.168;20.878;2022-08-23T01:52:40;32.20;;;10.57;;
50483;SDS011;36409;52.168;20.878;2022-08-23T01:55:14;22.17;;;9.73;;
50483;SDS011;36409;52.168;20.878;2022-08-23T01:57:46;25.20;;;11.10;;
50483;SDS011;36409;52.168;20.878;2022-08-23T02:00:19;21.00;;;10.10;;
50483;SDS011;36409;52.168;20.878;2022-08-23T02:02:49;24.05;;;10.35;;
50483;SDS011;36409;52.168;20.878;2022-08-23T02:05:19;23.67;;;11.13;;
50483;SDS011;36409;52.168;20.878;2022-08-23T02:07:48;23.87;;;10.63;;
50483;SDS011;36409;52.168;20.878;2022-08-23T02:10:18;22.73;;;10.93;;
50483;SDS011;36409;52.168;20.878;2022-08-23T02:12:48;17.50;;;9.37;;
50483;SDS011;36409;52.168;20.878;2022-08-23T02:15:17;24.57;;;9.70;;
50483;SDS011;36409;52.168;20.878;2022-08-23T02:17:47;26.47;;;10.83;;
50483;SDS011;36409;52.168;20.878;2022-08-23T02:20:16;22.30;;;10.70;;
50483;SDS011;36409;52.168;20.878;2022-08-23T02:22:45;21.37;;;10.50;;
50483;SDS011;36409;52.168;20.878;2022-08-23T02:25:14;17.90;;;9.50;;
50483;SDS011;36409;52.168;20.878;2022-08-23T02:27:43;25.67;;;10.07;;
50483;SDS011;36409;52.168;20.878;2022-08-23T02:30:12;20.60;;;10.63;;
50483;SDS011;36409;52.168;20.878;2022-08-23T02:32:42;20.20;;;10.40;;
50483;SDS011;36409;52.168;20.878;2022-08-23T02:35:11;21.20;;;10.80;;
50483;SDS011;36409;52.168;20.878;2022-08-23T02:37:40;24.07;;;10.97;;
50483;SDS011;36409;52.168;20.878;2022-08-23T02:40:09;26.50;;;11.30;;
50483;SDS011;36409;52.168;20.878;2022-08-23T02:42:38;21.87;;;10.73;;
50483;SDS011;36409;52.168;20.878;2022-08-23T02:45:08;23.63;;;11.67;;
50483;SDS011;36409;52.168;20.878;2022-08-23T02:47:42;24.60;;;10.73;;
50483;SDS011;36409;52.168;20.878;2022-08-23T02:50:21;22.43;;;10.80;;
50483;SDS011;36409;52.168;20.878;2022-08-23T02:52:50;21.20;;;11.20;;
50483;SDS011;36409;52.168;20.878;2022-08-23T02:55:20;25.10;;;11.67;;
50483;SDS011;36409;52.168;20.878;2022-08-23T02:57:48;21.63;;;10.30;;
50483;SDS011;36409;52.168;20.878;2022-08-23T03:00:18;23.70;;;12.03;;
50483;SDS011;36409;52.168;20.878;2022-08-23T03:02:49;20.87;;;10.60;;
50483;SDS011;36409;52.168;20.878;2022-08-23T03:05:19;19.37;;;10.83;;
50483;SDS011;36409;52.168;20.878;2022-08-23T03:07:48;24.07;;;11.60;;
50483;SDS011;36409;52.168;20.878;2022-08-23T03:10:16;22.30;;;10.90;;
50483;SDS011;36409;52.168;20.878;2022-08-23T03:12:50;21.90;;;11.30;;
50483;SDS011;36409;52.168;20.878;2022-08-23T03:15:18;24.90;;;10.43;;
50483;SDS011;36409;52.168;20.878;2022-08-23T03:17:47;18.97;;;10.77;;
50483;SDS011;36409;52.168;20.878;2022-08-23T03:20:16;23.07;;;11.63;;
50483;SDS011;36409;52.168;20.878;2022-08-23T03:22:46;24.33;;;10.97;;
50483;SDS011;36409;52.168;20.878;2022-08-23T03:25:22;18.97;;;9.90;;
50483;SDS011;36409;52.168;20.878;2022-08-23T03:28:01;18.33;;;9.60;;
50483;SDS011;36409;52.168;20.878;2022-08-23T03:30:31;18.30;;;10.60;;
50483;SDS011;36409;52.168;20.878;2022-08-23T03:33:00;20.83;;;11.27;;
50483;SDS011;36409;52.168;20.878;2022-08-23T03:35:30;18.20;;;10.70;;
50483;SDS011;36409;52.168;20.878;2022-08-23T03:38:00;22.50;;;10.17;;
50483;SDS011;36409;52.168;20.878;2022-08-23T03:40:29;19.57;;;10.03;;
50483;SDS011;36409;52.168;20.878;2022-08-23T03:42:58;19.20;;;10.20;;
50483;SDS011;36409;52.168;20.878;2022-08-23T03:45:28;19.63;;;10.30;;
50483;SDS011;36409;52.168;20.878;2022-08-23T03:47:56;17.53;;;10.00;;
50483;SDS011;36409;52.168;20.878;2022-08-23T03:50:27;17.57;;;9.97;;
50483;SDS011;36409;52.168;20.878;2022-08-23T03:52:55;15.47;;;9.67;;
50483;SDS011;36409;52.168;20.878;2022-08-23T03:55:24;17.53;;;10.30;;
50483;SDS011;36409;52.168;20.878;2022-08-23T03:57:53;18.83;;;11.13;;
50483;SDS011;36409;52.168;20.878;2022-08-23T04:00:21;23.50;;;10.73;;
50483;SDS011;36409;52.168;20.878;2022-08-23T04:02:51;15.27;;;9.67;;
50483;SDS011;36409;52.168;20.878;2022-08-23T04:05:20;17.27;;;9.43;;
50483;SDS011;36409;52.168;20.878;2022-08-23T04:07:59;16.17;;;9.67;;
50483;SDS011;36409;52.168;20.878;2022-08-23T04:10:35;19.63;;;10.13;;
50483;SDS011;36409;52.168;20.878;2022-08-23T04:13:05;21.80;;;9.70;;
50483;SDS011;36409;52.168;20.878;2022-08-23T04:15:35;17.13;;;9.33;;
50483;SDS011;36409;52.168;20.878;2022-08-23T04:18:05;22.30;;;10.67;;
50483;SDS011;36409;52.168;20.878;2022-08-23T04:20:36;18.47;;;9.80;;
50483;SDS011;36409;52.168;20.878;2022-08-23T04:23:05;20.37;;;10.10;;
50483;SDS011;36409;52.168;20.878;2022-08-23T04:25:42;17.50;;;10.83;;
50483;SDS011;36409;52.168;20.878;2022-08-23T04:28:11;17.67;;;10.67;;
50483;SDS011;36409;52.168;20.878;2022-08-23T04:30:40;15.13;;;9.73;;
50483;SDS011;36409;52.168;20.878;2022-08-23T04:33:14;13.73;;;9.27;;
50483;SDS011;36409;52.168;20.878;2022-08-23T04:35:45;22.90;;;11.50;;
50483;SDS011;36409;52.168;20.878;2022-08-23T04:38:14;24.17;;;12.50;;
50483;SDS011;36409;52.168;20.878;2022-08-23T04:40:53;22.40;;;11.70;;
50483;SDS011;36409;52.168;20.878;2022-08-23T04:43:41;17.50;;;10.30;;
50483;SDS011;36409;52.168;20.878;2022-08-23T04:46:11;14.67;;;9.77;;
50483;SDS011;36409;52.168;20.878;2022-08-23T04:48:41;18.20;;;10.73;;
50483;SDS011;36409;52.168;20.878;2022-08-23T04:51:11;15.20;;;10.27;;
50483;SDS011;36409;52.168;20.878;2022-08-23T04:53:40;21.27;;;10.33;;
50483;SDS011;36409;52.168;20.878;2022-08-23T04:56:35;14.87;;;10.00;;
50483;SDS011;36409;52.168;20.878;2022-08-23T04:59:05;17.50;;;9.77;;
50483;SDS011;36409;52.168;20.878;2022-08-23T05:01:41;18.07;;;10.07;;
50483;SDS011;36409;52.168;20.878;2022-08-23T05:04:09;15.13;;;10.43;;
50483;SDS011;36409;52.168;20.878;2022-08-23T05:06:38;17.30;;;9.93;;
50483;SDS011;36409;52.168;20.878;2022-08-23T05:09:07;17.70;;;11.60;;
50483;SDS011;36409;52.168;20.878;2022-08-23T05:11:36;21.30;;;11.67;;
50483;SDS011;36409;52.168;20.878;2022-08-23T05:14:05;17.67;;;10.13;;
50483;SDS011;36409;52.168;20.878;2022-08-23T05:16:33;18.80;;;11.43;;
50483;SDS011;36409;52.168;20.878;2022-08-23T05:19:07;16.83;;;11.10;;
50483;SDS011;36409;52.168;20.878;2022-08-23T05:21:42;15.50;;;9.73;;
50483;SDS011;36409;52.168;20.878;2022-08-23T05:24:11;18.45;;;9.10;;
50483;SDS011;36409;52.168;20.878;2022-08-23T05:26:42;18.73;;;8.63;;
50483;SDS011;36409;52.168;20.878;2022-08-23T05:29:10;15.47;;;8.10;;
50483;SDS011;36409;52.168;20.878;2022-08-23T05:31:43;14.33;;;7.05;;
50483;SDS011;36409;52.168;20.878;2022-08-23T05:34:14;10.60;;;6.50;;
50483;SDS011;36409;52.168;20.878;2022-08-23T05:36:52;18.00;;;7.33;;
50483;SDS011;36409;52.168;20.878;2022-08-23T05:39:34;15.87;;;6.33;;
50483;SDS011;36409;52.168;20.878;2022-08-23T05:42:06;15.50;;;6.77;;
50483;SDS011;36409;52.168;20.878;2022-08-23T05:44:37;11.53;;;5.93;;
50483;SDS011;36409;52.168;20.878;2022-08-23T05:47:08;10.70;;;6.37;;
50483;SDS011;36409;52.168;20.878;2022-08-23T05:49:49;10.93;;;6.40;;
50483;SDS011;36409;52.168;20.878;2022-08-23T05:52:18;14.15;;;6.75;;
50483;SDS011;36409;52.168;20.878;2022-08-23T05:54:46;10.50;;;5.97;;
50483;SDS011;36409;52.168;20.878;2022-08-23T05:57:25;11.20;;;6.03;;
50483;SDS011;36409;52.168;20.878;2022-08-23T05:59:54;12.50;;;6.30;;
50483;SDS011;36409;52.168;20.878;2022-08-23T06:02:22;12.53;;;6.43;;
50483;SDS011;36409;52.168;20.878;2022-08-23T06:04:51;9.63;;;5.70;;
50483;SDS011;36409;52.168;20.878;2022-08-23T06:07:24;13.57;;;5.97;;
50483;SDS011;36409;52.168;20.878;2022-08-23T06:09:53;13.13;;;6.07;;
50483;SDS011;36409;52.168;20.878;2022-08-23T06:12:21;14.75;;;6.30;;
50483;SDS011;36409;52.168;20.878;2022-08-23T06:14:51;12.83;;;6.13;;
50483;SDS011;36409;52.168;20.878;2022-08-23T06:17:20;18.53;;;6.77;;
50483;SDS011;36409;52.168;20.878;2022-08-23T06:19:48;16.23;;;6.70;;
50483;SDS011;36409;52.168;20.878;2022-08-23T06:22:46;10.75;;;6.60;;
50483;SDS011;36409;52.168;20.878;2022-08-23T06:25:15;15.03;;;6.47;;
50483;SDS011;36409;52.168;20.878;2022-08-23T06:27:52;15.60;;;6.50;;
50483;SDS011;36409;52.168;20.878;2022-08-23T06:30:23;14.70;;;6.70;;
50483;SDS011;36409;52.168;20.878;2022-08-23T06:32:54;17.87;;;6.97;;
50483;SDS011;36409;52.168;20.878;2022-08-23T06:35:45;14.70;;;6.20;;
50483;SDS011;36409;52.168;20.878;2022-08-23T06:38:20;15.93;;;6.73;;
50483;SDS011;36409;52.168;20.878;2022-08-23T06:41:08;14.17;;;5.93;;
50483;SDS011;36409;52.168;20.878;2022-08-23T06:43:41;14.87;;;6.60;;
50483;SDS011;36409;52.168;20.878;2022-08-23T06:46:19;13.73;;;6.77;;
50483;SDS011;36409;52.168;20.878;2022-08-23T06:48:50;14.17;;;7.13;;
50483;SDS011;36409;52.168;20.878;2022-08-23T06:51:22;17.30;;;6.90;;
50483;SDS011;36409;52.168;20.878;2022-08-23T06:54:11;13.20;;;7.30;;
50483;SDS011;36409;52.168;20.878;2022-08-23T06:57:04;13.53;;;6.77;;
50483;SDS011;36409;52.168;20.878;2022-08-23T06:59:47;12.60;;;7.35;;
50483;SDS011;36409;52.168;20.878;2022-08-23T07:02:35;19.43;;;7.40;;
50483;SDS011;36409;52.168;20.878;2022-08-23T07:05:22;17.17;;;7.27;;
50483;SDS011;36409;52.168;20.878;2022-08-23T07:08:05;17.27;;;6.57;;
50483;SDS011;36409;52.168;20.878;2022-08-23T07:10:33;15.90;;;6.40;;
50483;SDS011;36409;52.168;20.878;2022-08-23T07:13:02;17.03;;;7.77;;
50483;SDS011;36409;52.168;20.878;2022-08-23T07:15:30;16.03;;;7.13;;
50483;SDS011;36409;52.168;20.878;2022-08-23T07:17:59;15.83;;;7.83;;
50483;SDS011;36409;52.168;20.878;2022-08-23T07:20:27;17.53;;;7.40;;
50483;SDS011;36409;52.168;20.878;2022-08-23T07:22:56;19.90;;;7.53;;
50483;SDS011;36409;52.168;20.878;2022-08-23T07:25:25;18.57;;;7.43;;
50483;SDS011;36409;52.168;20.878;2022-08-23T07:27:58;15.67;;;7.00;;
50483;SDS011;36409;52.168;20.878;2022-08-23T07:30:28;13.77;;;6.47;;
50483;SDS011;36409;52.168;20.878;2022-08-23T07:32:57;15.30;;;6.80;;
50483;SDS011;36409;52.168;20.878;2022-08-23T07:35:28;15.60;;;7.00;;
50483;SDS011;36409;52.168;20.878;2022-08-23T07:37:59;15.00;;;5.93;;
50483;SDS011;36409;52.168;20.878;2022-08-23T07:40:34;15.90;;;6.80;;
50483;SDS011;36409;52.168;20.878;2022-08-23T07:43:07;19.07;;;6.97;;
50483;SDS011;36409;52.168;20.878;2022-08-23T07:45:37;13.37;;;6.83;;
50483;SDS011;36409;52.168;20.878;2022-08-23T07:48:09;12.88;;;6.42;;
50483;SDS011;36409;52.168;20.878;2022-08-23T07:50:56;14.47;;;7.03;;
50483;SDS011;36409;52.168;20.878;2022-08-23T07:53:29;15.17;;;6.50;;
50483;SDS011;36409;52.168;20.878;2022-08-23T07:56:07;20.80;;;6.77;;
50483;SDS011;36409;52.168;20.878;2022-08-23T07:59:01;16.93;;;6.90;;
50483;SDS011;36409;52.168;20.878;2022-08-23T08:01:50;20.10;;;6.87;;
50483;SDS011;36409;52.168;20.878;2022-08-23T08:04:18;16.20;;;6.47;;
50483;SDS011;36409;52.168;20.878;2022-08-23T08:06:49;13.93;;;6.60;;
50483;SDS011;36409;52.168;20.878;2022-08-23T08:09:41;15.63;;;7.10;;
50483;SDS011;36409;52.168;20.878;2022-08-23T08:12:10;16.00;;;6.93;;
50483;SDS011;36409;52.168;20.878;2022-08-23T08:14:41;18.37;;;6.97;;
50483;SDS011;36409;52.168;20.878;2022-08-23T08:17:11;19.47;;;7.00;;
50483;SDS011;36409;52.168;20.878;2022-08-23T08:20:06;21.87;;;7.83;;
50483;SDS011;36409;52.168;20.878;2022-08-23T08:23:15;17.00;;;7.37;;
50483;SDS011;36409;52.168;20.878;2022-08-23T08:26:09;19.33;;;7.03;;
50483;SDS011;36409;52.168;20.878;2022-08-23T08:28:45;15.77;;;7.20;;
50483;SDS011;36409;52.168;20.878;2022-08-23T08:31:15;15.50;;;7.13;;
50483;SDS011;36409;52.168;20.878;2022-08-23T08:33:45;16.73;;;6.23;;
50483;SDS011;36409;52.168;20.878;2022-08-23T08:36:27;17.33;;;7.00;;
50483;SDS011;36409;52.168;20.878;2022-08-23T08:38:59;20.07;;;7.13;;
50483;SDS011;36409;52.168;20.878;2022-08-23T08:41:42;18.60;;;7.40;;
50483;SDS011;36409;52.168;20.878;2022-08-23T08:44:34;19.80;;;7.50;;
50483;SDS011;36409;52.168;20.878;2022-08-23T08:47:11;21.13;;;7.67;;
50483;SDS011;36409;52.168;20.878;2022-08-23T08:49:46;14.73;;;6.83;;
50483;SDS011;36409;52.168;20.878;2022-08-23T08:52:21;17.30;;;7.20;;
50483;SDS011;36409;52.168;20.878;2022-08-23T08:55:04;14.97;;;6.23;;
50483;SDS011;36409;52.168;20.878;2022-08-23T08:57:38;20.40;;;7.03;;
50483;SDS011;36409;52.168;20.878;2022-08-23T09:00:11;19.60;;;7.65;;
50483;SDS011;36409;52.168;20.878;2022-08-23T09:02:42;16.60;;;6.95;;
50483;SDS011;36409;52.168;20.878;2022-08-23T09:05:13;19.83;;;6.63;;
50483;SDS011;36409;52.168;20.878;2022-08-23T09:07:48;12.97;;;6.13;;
50483;SDS011;36409;52.168;20.878;2022-08-23T09:10:42;15.57;;;6.53;;
50483;SDS011;36409;52.168;20.878;2022-08-23T09:13:31;20.20;;;6.63;;
50483;SDS011;36409;52.168;20.878;2022-08-23T09:16:16;16.73;;;6.17;;
50483;SDS011;36409;52.168;20.878;2022-08-23T09:18:56;14.73;;;6.12;;
50483;SDS011;36409;52.168;20.878;2022-08-23T09:21:29;18.90;;;6.17;;
50483;SDS011;36409;52.168;20.878;2022-08-23T09:24:05;16.13;;;6.50;;
50483;SDS011;36409;52.168;20.878;2022-08-23T09:26:54;20.87;;;6.57;;
50483;SDS011;36409;52.168;20.878;2022-08-23T09:29:25;18.63;;;7.07;;
50483;SDS011;36409;52.168;20.878;2022-08-23T09:31:56;16.27;;;6.73;;
50483;SDS011;36409;52.168;20.878;2022-08-23T09:34:40;19.93;;;6.83;;
50483;SDS011;36409;52.168;20.878;2022-08-23T09:37:15;21.13;;;7.27;;
50483;SDS011;36409;52.168;20.878;2022-08-23T09:39:45;20.63;;;7.30;;
50483;SDS011;36409;52.168;20.878;2022-08-23T09:42:26;17.10;;;6.43;;
50483;SDS011;36409;52.168;20.878;2022-08-23T09:44:58;18.77;;;7.20;;
50483;SDS011;36409;52.168;20.878;2022-08-23T09:47:32;17.23;;;7.07;;
50483;SDS011;36409;52.168;20.878;2022-08-23T09:50:16;17.37;;;6.23;;
50483;SDS011;36409;52.168;20.878;2022-08-23T09:52:56;15.63;;;6.57;;
50483;SDS011;36409;52.168;20.878;2022-08-23T09:55:28;18.77;;;6.73;;
50483;SDS011;36409;52.168;20.878;2022-08-23T09:58:00;18.63;;;6.93;;
50483;SDS011;36409;52.168;20.878;2022-08-23T10:00:31;27.63;;;8.03;;
50483;SDS011;36409;52.168;20.878;2022-08-23T10:03:18;18.70;;;7.07;;
50483;SDS011;36409;52.168;20.878;2022-08-23T10:05:54;21.43;;;6.73;;
50483;SDS011;36409;52.168;20.878;2022-08-23T10:08:25;20.87;;;6.97;;
50483;SDS011;36409;52.168;20.878;2022-08-23T10:11:01;19.77;;;7.23;;
50483;SDS011;36409;52.168;20.878;2022-08-23T10:13:40;20.87;;;7.00;;
50483;SDS011;36409;52.168;20.878;2022-08-23T10:16:14;21.60;;;7.67;;
50483;SDS011;36409;52.168;20.878;2022-08-23T10:18:58;21.07;;;6.53;;
50483;SDS011;36409;52.168;20.878;2022-08-23T10:21:38;17.30;;;6.33;;
50483;SDS011;36409;52.168;20.878;2022-08-23T10:24:28;20.13;;;6.13;;
50483;SDS011;36409;52.168;20.878;2022-08-23T10:27:15;22.40;;;7.63;;
50483;SDS011;36409;52.168;20.878;2022-08-23T10:30:10;23.73;;;6.67;;
50483;SDS011;36409;52.168;20.878;2022-08-23T10:32:44;25.02;;;6.78;;
50483;SDS011;36409;52.168;20.878;2022-08-23T10:35:33;23.13;;;6.60;;
50483;SDS011;36409;52.168;20.878;2022-08-23T10:41:29;20.53;;;6.00;;
50483;SDS011;36409;52.168;20.878;2022-08-23T10:44:13;18.83;;;5.97;;
50483;SDS011;36409;52.168;20.878;2022-08-23T10:46:52;24.97;;;6.80;;
50483;SDS011;36409;52.168;20.878;2022-08-23T10:49:37;19.10;;;7.20;;
50483;SDS011;36409;52.168;20.878;2022-08-23T10:52:08;22.53;;;6.83;;
50483;SDS011;36409;52.168;20.878;2022-08-23T10:54:44;21.03;;;5.97;;
50483;SDS011;36409;52.168;20.878;2022-08-23T10:57:30;27.10;;;6.40;;
50483;SDS011;36409;52.168;20.878;2022-08-23T11:00:03;21.47;;;5.87;;
50483;SDS011;36409;52.168;20.878;2022-08-23T11:02:38;23.50;;;6.30;;
50483;SDS011;36409;52.168;20.878;2022-08-23T11:05:24;27.13;;;6.60;;
50483;SDS011;36409;52.168;20.878;2022-08-23T11:08:00;20.43;;;6.53;;
50483;SDS011;36409;52.168;20.878;2022-08-23T11:10:41;28.90;;;6.17;;
50483;SDS011;36409;52.168;20.878;2022-08-23T11:13:28;26.30;;;6.53;;
50483;SDS011;36409;52.168;20.878;2022-08-23T11:15:59;24.10;;;6.13;;
50483;SDS011;36409;52.168;20.878;2022-08-23T11:18:39;19.27;;;5.83;;
50483;SDS011;36409;52.168;20.878;2022-08-23T11:24:28;22.07;;;5.57;;
50483;SDS011;36409;52.168;20.878;2022-08-23T11:27:05;20.93;;;6.37;;
50483;SDS011;36409;52.168;20.878;2022-08-23T11:29:41;19.90;;;5.73;;
50483;SDS011;36409;52.168;20.878;2022-08-23T11:32:34;18.40;;;5.10;;
50483;SDS011;36409;52.168;20.878;2022-08-23T11:35:09;18.63;;;6.43;;
50483;SDS011;36409;52.168;20.878;2022-08-23T11:37:53;19.97;;;5.87;;
50483;SDS011;36409;52.168;20.878;2022-08-23T11:40:38;22.63;;;5.70;;
50483;SDS011;36409;52.168;20.878;2022-08-23T11:43:29;33.10;;;5.80;;
50483;SDS011;36409;52.168;20.878;2022-08-23T11:46:25;22.43;;;5.70;;
50483;SDS011;36409;52.168;20.878;2022-08-23T11:49:30;23.23;;;6.07;;
50483;SDS011;36409;52.168;20.878;2022-08-23T11:52:25;25.80;;;6.43;;
50483;SDS011;36409;52.168;20.878;2022-08-23T11:55:13;21.73;;;5.33;;
50483;SDS011;36409;52.168;20.878;2022-08-23T11:57:54;22.70;;;5.30;;
50483;SDS011;36409;52.168;20.878;2022-08-23T12:00:46;34.57;;;5.87;;
50483;SDS011;36409;52.168;20.878;2022-08-23T12:03:22;25.67;;;6.07;;
50483;SDS011;36409;52.168;20.878;2022-08-23T12:06:08;25.00;;;5.93;;
50483;SDS011;36409;52.168;20.878;2022-08-23T12:08:46;27.70;;;5.93;;
50483;SDS011;36409;52.168;20.878;2022-08-23T12:11:17;26.55;;;6.20;;
50483;SDS011;36409;52.168;20.878;2022-08-23T12:13:49;26.93;;;5.73;;
50483;SDS011;36409;52.168;20.878;2022-08-23T12:16:31;27.03;;;5.90;;
50483;SDS011;36409;52.168;20.878;2022-08-23T12:19:05;30.17;;;6.67;;
50483;SDS011;36409;52.168;20.878;2022-08-23T12:21:41;28.63;;;6.03;;
50483;SDS011;36409;52.168;20.878;2022-08-23T12:24:18;28.97;;;6.27;;
50483;SDS011;36409;52.168;20.878;2022-08-23T12:26:53;26.17;;;6.57;;
50483;SDS011;36409;52.168;20.878;2022-08-23T12:29:36;23.00;;;5.08;;
50483;SDS011;36409;52.168;20.878;2022-08-23T12:32:20;28.13;;;5.27;;
50483;SDS011;36409;52.168;20.878;2022-08-23T12:35:03;24.53;;;6.90;;
50483;SDS011;36409;52.168;20.878;2022-08-23T12:37:46;27.23;;;5.97;;
50483;SDS011;36409;52.168;20.878;2022-08-23T12:40:24;29.43;;;5.97;;
50483;SDS011;36409;52.168;20.878;2022-08-23T12:43:02;25.27;;;5.33;;
50483;SDS011;36409;52.168;20.878;2022-08-23T12:45:38;26.63;;;5.43;;
50483;SDS011;36409;52.168;20.878;2022-08-23T12:48:10;30.15;;;5.40;;
50483;SDS011;36409;52.168;20.878;2022-08-23T12:50:41;30.77;;;7.20;;
50483;SDS011;36409;52.168;20.878;2022-08-23T12:53:12;35.47;;;5.57;;
50483;SDS011;36409;52.168;20.878;2022-08-23T12:55:44;29.00;;;5.77;;
50483;SDS011;36409;52.168;20.878;2022-08-23T12:58:15;24.65;;;5.05;;
50483;SDS011;36409;52.168;20.878;2022-08-23T13:01:00;25.07;;;5.67;;
50483;SDS011;36409;52.168;20.878;2022-08-23T13:03:32;29.57;;;6.50;;
50483;SDS011;36409;52.168;20.878;2022-08-23T13:06:06;22.70;;;6.20;;
50483;SDS011;36409;52.168;20.878;2022-08-23T13:08:39;32.20;;;5.67;;
50483;SDS011;36409;52.168;20.878;2022-08-23T13:11:12;24.60;;;4.90;;
50483;SDS011;36409;52.168;20.878;2022-08-23T13:13:45;31.00;;;5.53;;
50483;SDS011;36409;52.168;20.878;2022-08-23T13:16:25;26.17;;;5.63;;
50483;SDS011;36409;52.168;20.878;2022-08-23T13:19:10;27.67;;;6.17;;
50483;SDS011;36409;52.168;20.878;2022-08-23T13:21:43;27.43;;;6.53;;
50483;SDS011;36409;52.168;20.878;2022-08-23T13:24:26;27.07;;;5.70;;
50483;SDS011;36409;52.168;20.878;2022-08-23T13:27:13;25.20;;;6.23;;
50483;SDS011;36409;52.168;20.878;2022-08-23T13:29:48;31.87;;;6.63;;
50483;SDS011;36409;52.168;20.878;2022-08-23T13:32:24;36.27;;;6.10;;
50483;SDS011;36409;52.168;20.878;2022-08-23T13:37:58;31.53;;;7.37;;
50483;SDS011;36409;52.168;20.878;2022-08-23T13:40:39;34.17;;;7.33;;
50483;SDS011;36409;52.168;20.878;2022-08-23T13:43:11;38.67;;;6.53;;
50483;SDS011;36409;52.168;20.878;2022-08-23T13:45:47;29.67;;;6.17;;
50483;SDS011;36409;52.168;20.878;2022-08-23T13:48:19;35.67;;;7.30;;
50483;SDS011;36409;52.168;20.878;2022-08-23T13:50:50;31.15;;;6.45;;
50483;SDS011;36409;52.168;20.878;2022-08-23T13:53:19;32.73;;;7.03;;
50483;SDS011;36409;52.168;20.878;2022-08-23T13:55:49;34.50;;;6.00;;
50483;SDS011;36409;52.168;20.878;2022-08-23T13:58:24;43.37;;;6.90;;
50483;SDS011;36409;52.168;20.878;2022-08-23T14:00:55;30.20;;;6.83;;
50483;SDS011;36409;52.168;20.878;2022-08-23T14:03:26;37.00;;;7.30;;
50483;SDS011;36409;52.168;20.878;2022-08-23T14:05:57;34.97;;;7.30;;
50483;SDS011;36409;52.168;20.878;2022-08-23T14:14:52;27.50;;;6.45;;
50483;SDS011;36409;52.168;20.878;2022-08-23T14:17:23;38.27;;;7.00;;
50483;SDS011;36409;52.168;20.878;2022-08-23T14:19:52;40.37;;;6.80;;
50483;SDS011;36409;52.168;20.878;2022-08-23T14:22:40;36.63;;;7.40;;
50483;SDS011;36409;52.168;20.878;2022-08-23T14:25:10;32.53;;;7.43;;
50483;SDS011;36409;52.168;20.878;2022-08-23T14:27:40;33.53;;;6.67;;
50483;SDS011;36409;52.168;20.878;2022-08-23T14:30:15;30.83;;;7.37;;
50483;SDS011;36409;52.168;20.878;2022-08-23T14:32:50;30.97;;;7.07;;
50483;SDS011;36409;52.168;20.878;2022-08-23T14:35:18;33.57;;;6.93;;
50483;SDS011;36409;52.168;20.878;2022-08-23T14:37:47;35.03;;;7.37;;
50483;SDS011;36409;52.168;20.878;2022-08-23T14:40:32;40.40;;;7.43;;
50483;SDS011;36409;52.168;20.878;2022-08-23T14:43:03;28.83;;;7.03;;
50483;SDS011;36409;52.168;20.878;2022-08-23T14:45:31;35.90;;;7.07;;
50483;SDS011;36409;52.168;20.878;2022-08-23T14:48:01;31.97;;;7.00;;
50483;SDS011;36409;52.168;20.878;2022-08-23T14:50:31;35.93;;;7.47;;
50483;SDS011;36409;52.168;20.878;2022-08-23T14:53:02;29.60;;;7.97;;
50483;SDS011;36409;52.168;20.878;2022-08-23T14:55:31;33.83;;;5.67;;
50483;SDS011;36409;52.168;20.878;2022-08-23T14:58:00;22.30;;;5.63;;
50483;SDS011;36409;52.168;20.878;2022-08-23T15:00:31;15.47;;;4.70;;
50483;SDS011;36409;52.168;20.878;2022-08-23T15:03:01;18.47;;;4.47;;
50483;SDS011;36409;52.168;20.878;2022-08-23T15:05:36;19.73;;;4.93;;
50483;SDS011;36409;52.168;20.878;2022-08-23T15:08:05;16.43;;;4.93;;
50483;SDS011;36409;52.168;20.878;2022-08-23T15:10:33;14.73;;;4.00;;
50483;SDS011;36409;52.168;20.878;2022-08-23T15:13:22;14.07;;;4.23;;
50483;SDS011;36409;52.168;20.878;2022-08-23T15:16:00;17.77;;;3.53;;
50483;SDS011;36409;52.168;20.878;2022-08-23T15:18:31;15.53;;;4.17;;
50483;SDS011;36409;52.168;20.878;2022-08-23T15:21:01;14.43;;;4.17;;